sensor_id;sensor_type;location;lat;lon;timestamp;P1;durP1;ratioP1;P2;durP2;ratioP2
80936;SDS011;70395;51.382;7.074;2024-01-30T00:01:55;8.57;;;7.20;;
80936;SDS011;70395;51.382;7.074;2024-01-30T00:04:20;9.77;;;7.40;;
80936;SDS011;70395;51.382;7.074;2024-01-30T00:06:46;10.80;;;7.90;;
80936;SDS011;70395;51.382;7.074;2024-01-30T00:09:12;10.03;;;8.47;;
80936;SDS011;70395;51.382;7.074;2024-01-30T00:11:39;8.27;;;7.20;;
80936;SDS011;70395;51.382;7.074;2024-01-30T00:14:05;8.10;;;7.23;;
80936;SDS011;70395;51.382;7.074;2024-01-30T00:16:30;9.63;;;7.30;;
80936;SDS011;70395;51.382;7.074;2024-01-30T00:18:57;11.37;;;8.70;;
80936;SDS011;70395;51.382;7.074;2024-01-30T00:21:23;9.20;;;7.50;;
80936;SDS011;70395;51.382;7.074;2024-01-30T00:23:50;9.40;;;7.53;;
80936;SDS011;70395;51.382;7.074;2024-01-30T00:26:16;8.40;;;7.50;;
80936;SDS011;70395;51.382;7.074;2024-01-30T00:28:41;9.13;;;7.83;;
80936;SDS011;70395;51.382;7.074;2024-01-30T00:31:08;10.40;;;8.07;;
80936;SDS011;70395;51.382;7.074;2024-01-30T00:33:40;8.87;;;7.57;;
80936;SDS011;70395;51.382;7.074;2024-01-30T00:36:07;9.93;;;7.67;;
80936;SDS011;70395;51.382;7.074;2024-01-30T00:38:34;10.70;;;7.90;;
80936;SDS011;70395;51.382;7.074;2024-01-30T00:41:00;9.13;;;7.80;;
80936;SDS011;70395;51.382;7.074;2024-01-30T00:43:27;9.80;;;7.33;;
80936;SDS011;70395;51.382;7.074;2024-01-30T00:45:53;8.97;;;8.07;;
80936;SDS011;70395;51.382;7.074;2024-01-30T00:48:19;9.97;;;8.60;;
80936;SDS011;70395;51.382;7.074;2024-01-30T00:50:45;12.43;;;8.30;;
80936;SDS011;70395;51.382;7.074;2024-01-30T00:53:11;11.73;;;7.93;;
80936;SDS011;70395;51.382;7.074;2024-01-30T00:55:37;9.90;;;8.40;;
80936;SDS011;70395;51.382;7.074;2024-01-30T00:58:03;9.40;;;8.40;;
80936;SDS011;70395;51.382;7.074;2024-01-30T01:00:29;11.17;;;8.17;;
80936;SDS011;70395;51.382;7.074;2024-01-30T01:02:57;11.60;;;8.23;;
80936;SDS011;70395;51.382;7.074;2024-01-30T01:05:26;9.50;;;7.90;;
80936;SDS011;70395;51.382;7.074;2024-01-30T01:07:52;10.80;;;8.73;;
80936;SDS011;70395;51.382;7.074;2024-01-30T01:10:18;10.13;;;7.80;;
80936;SDS011;70395;51.382;7.074;2024-01-30T01:12:44;10.77;;;8.00;;
80936;SDS011;70395;51.382;7.074;2024-01-30T01:15:11;9.13;;;7.97;;
80936;SDS011;70395;51.382;7.074;2024-01-30T01:17:37;10.33;;;8.43;;
80936;SDS011;70395;51.382;7.074;2024-01-30T01:20:04;11.00;;;8.57;;
80936;SDS011;70395;51.382;7.074;2024-01-30T01:22:32;8.70;;;7.80;;
80936;SDS011;70395;51.382;7.074;2024-01-30T01:24:58;9.17;;;7.53;;
80936;SDS011;70395;51.382;7.074;2024-01-30T01:27:25;10.63;;;8.17;;
80936;SDS011;70395;51.382;7.074;2024-01-30T01:29:51;10.27;;;7.40;;
80936;SDS011;70395;51.382;7.074;2024-01-30T01:32:18;10.13;;;8.87;;
80936;SDS011;70395;51.382;7.074;2024-01-30T01:34:44;11.10;;;8.10;;
80936;SDS011;70395;51.382;7.074;2024-01-30T01:37:10;11.47;;;8.10;;
80936;SDS011;70395;51.382;7.074;2024-01-30T01:39:35;9.43;;;7.53;;
80936;SDS011;70395;51.382;7.074;2024-01-30T01:42:01;8.53;;;7.63;;
80936;SDS011;70395;51.382;7.074;2024-01-30T01:44:27;10.13;;;8.90;;
80936;SDS011;70395;51.382;7.074;2024-01-30T01:46:53;10.00;;;8.37;;
80936;SDS011;70395;51.382;7.074;2024-01-30T01:49:21;11.90;;;7.67;;
80936;SDS011;70395;51.382;7.074;2024-01-30T01:51:50;7.40;;;6.67;;
80936;SDS011;70395;51.382;7.074;2024-01-30T01:54:21;8.50;;;7.53;;
80936;SDS011;70395;51.382;7.074;2024-01-30T01:56:50;8.90;;;8.00;;
80936;SDS011;70395;51.382;7.074;2024-01-30T01:59:18;10.73;;;8.40;;
80936;SDS011;70395;51.382;7.074;2024-01-30T02:01:47;9.40;;;7.90;;
80936;SDS011;70395;51.382;7.074;2024-01-30T02:04:16;10.90;;;8.73;;
80936;SDS011;70395;51.382;7.074;2024-01-30T02:06:42;10.17;;;8.20;;
80936;SDS011;70395;51.382;7.074;2024-01-30T02:09:09;9.43;;;7.77;;
80936;SDS011;70395;51.382;7.074;2024-01-30T02:11:35;10.60;;;7.80;;
80936;SDS011;70395;51.382;7.074;2024-01-30T02:14:04;10.57;;;8.00;;
80936;SDS011;70395;51.382;7.074;2024-01-30T02:16:30;9.40;;;7.60;;
80936;SDS011;70395;51.382;7.074;2024-01-30T02:18:57;10.50;;;8.13;;
80936;SDS011;70395;51.382;7.074;2024-01-30T02:21:23;8.13;;;7.33;;
80936;SDS011;70395;51.382;7.074;2024-01-30T02:23:49;8.20;;;7.30;;
80936;SDS011;70395;51.382;7.074;2024-01-30T02:26:17;9.83;;;7.33;;
80936;SDS011;70395;51.382;7.074;2024-01-30T02:28:43;9.17;;;7.60;;
80936;SDS011;70395;51.382;7.074;2024-01-30T02:31:08;11.20;;;7.67;;
80936;SDS011;70395;51.382;7.074;2024-01-30T02:33:34;11.27;;;7.67;;
80936;SDS011;70395;51.382;7.074;2024-01-30T02:36:00;8.70;;;7.90;;
80936;SDS011;70395;51.382;7.074;2024-01-30T02:38:26;10.33;;;8.30;;
80936;SDS011;70395;51.382;7.074;2024-01-30T02:40:52;7.63;;;6.90;;
80936;SDS011;70395;51.382;7.074;2024-01-30T02:43:18;8.17;;;7.30;;
80936;SDS011;70395;51.382;7.074;2024-01-30T02:45:44;10.20;;;7.67;;
80936;SDS011;70395;51.382;7.074;2024-01-30T02:48:10;9.50;;;7.97;;
80936;SDS011;70395;51.382;7.074;2024-01-30T02:50:36;9.00;;;7.17;;
80936;SDS011;70395;51.382;7.074;2024-01-30T02:53:01;8.80;;;6.87;;
80936;SDS011;70395;51.382;7.074;2024-01-30T02:55:27;9.07;;;7.30;;
80936;SDS011;70395;51.382;7.074;2024-01-30T02:57:53;10.77;;;7.13;;
80936;SDS011;70395;51.382;7.074;2024-01-30T03:00:19;8.70;;;6.73;;
80936;SDS011;70395;51.382;7.074;2024-01-30T03:02:45;11.30;;;6.63;;
80936;SDS011;70395;51.382;7.074;2024-01-30T03:05:11;8.40;;;6.80;;
80936;SDS011;70395;51.382;7.074;2024-01-30T03:07:37;9.10;;;7.33;;
80936;SDS011;70395;51.382;7.074;2024-01-30T03:10:06;9.07;;;8.10;;
80936;SDS011;70395;51.382;7.074;2024-01-30T03:12:32;9.20;;;7.10;;
80936;SDS011;70395;51.382;7.074;2024-01-30T03:14:58;9.30;;;7.33;;
80936;SDS011;70395;51.382;7.074;2024-01-30T03:17:24;10.43;;;6.93;;
80936;SDS011;70395;51.382;7.074;2024-01-30T03:19:50;8.70;;;7.37;;
80936;SDS011;70395;51.382;7.074;2024-01-30T03:22:16;14.57;;;7.80;;
80936;SDS011;70395;51.382;7.074;2024-01-30T03:24:42;7.93;;;7.17;;
80936;SDS011;70395;51.382;7.074;2024-01-30T03:27:08;8.97;;;7.10;;
80936;SDS011;70395;51.382;7.074;2024-01-30T03:29:34;9.90;;;6.80;;
80936;SDS011;70395;51.382;7.074;2024-01-30T03:32:00;9.10;;;7.10;;
80936;SDS011;70395;51.382;7.074;2024-01-30T03:34:26;10.00;;;6.60;;
80936;SDS011;70395;51.382;7.074;2024-01-30T03:36:51;8.13;;;7.30;;
80936;SDS011;70395;51.382;7.074;2024-01-30T03:39:17;7.37;;;6.23;;
80936;SDS011;70395;51.382;7.074;2024-01-30T03:41:43;7.93;;;6.90;;
80936;SDS011;70395;51.382;7.074;2024-01-30T03:44:10;9.40;;;6.57;;
80936;SDS011;70395;51.382;7.074;2024-01-30T03:46:36;11.87;;;7.53;;
80936;SDS011;70395;51.382;7.074;2024-01-30T03:49:02;9.37;;;7.50;;
80936;SDS011;70395;51.382;7.074;2024-01-30T03:51:28;8.00;;;6.57;;
80936;SDS011;70395;51.382;7.074;2024-01-30T03:53:54;7.73;;;6.87;;
80936;SDS011;70395;51.382;7.074;2024-01-30T03:56:19;9.00;;;6.40;;
80936;SDS011;70395;51.382;7.074;2024-01-30T03:58:45;11.40;;;6.47;;
80936;SDS011;70395;51.382;7.074;2024-01-30T04:01:14;13.83;;;6.83;;
80936;SDS011;70395;51.382;7.074;2024-01-30T04:03:40;9.70;;;7.30;;
80936;SDS011;70395;51.382;7.074;2024-01-30T04:06:07;9.20;;;6.37;;
80936;SDS011;70395;51.382;7.074;2024-01-30T04:08:33;8.77;;;6.73;;
80936;SDS011;70395;51.382;7.074;2024-01-30T04:11:02;8.27;;;6.20;;
80936;SDS011;70395;51.382;7.074;2024-01-30T04:13:32;8.03;;;6.17;;
80936;SDS011;70395;51.382;7.074;2024-01-30T04:16:02;7.13;;;6.43;;
80936;SDS011;70395;51.382;7.074;2024-01-30T04:18:28;7.03;;;6.27;;
80936;SDS011;70395;51.382;7.074;2024-01-30T04:20:54;8.33;;;7.40;;
80936;SDS011;70395;51.382;7.074;2024-01-30T04:23:21;6.43;;;5.83;;
80936;SDS011;70395;51.382;7.074;2024-01-30T04:25:47;8.57;;;6.40;;
80936;SDS011;70395;51.382;7.074;2024-01-30T04:28:12;6.90;;;6.20;;
80936;SDS011;70395;51.382;7.074;2024-01-30T04:30:39;8.30;;;6.60;;
80936;SDS011;70395;51.382;7.074;2024-01-30T04:33:05;10.13;;;6.63;;
80936;SDS011;70395;51.382;7.074;2024-01-30T04:35:31;7.00;;;5.83;;
80936;SDS011;70395;51.382;7.074;2024-01-30T04:37:56;5.77;;;5.23;;
80936;SDS011;70395;51.382;7.074;2024-01-30T04:40:22;9.13;;;6.67;;
80936;SDS011;70395;51.382;7.074;2024-01-30T04:42:48;7.80;;;6.73;;
80936;SDS011;70395;51.382;7.074;2024-01-30T04:45:14;7.40;;;5.43;;
80936;SDS011;70395;51.382;7.074;2024-01-30T04:47:40;9.57;;;6.80;;
80936;SDS011;70395;51.382;7.074;2024-01-30T04:50:06;7.53;;;6.07;;
80936;SDS011;70395;51.382;7.074;2024-01-30T04:52:33;6.60;;;5.87;;
80936;SDS011;70395;51.382;7.074;2024-01-30T04:55:00;7.70;;;6.50;;
80936;SDS011;70395;51.382;7.074;2024-01-30T04:57:26;7.97;;;6.17;;
80936;SDS011;70395;51.382;7.074;2024-01-30T04:59:51;8.77;;;6.43;;
80936;SDS011;70395;51.382;7.074;2024-01-30T05:02:17;8.03;;;6.87;;
80936;SDS011;70395;51.382;7.074;2024-01-30T05:04:43;8.93;;;6.30;;
80936;SDS011;70395;51.382;7.074;2024-01-30T05:07:09;9.67;;;6.30;;
80936;SDS011;70395;51.382;7.074;2024-01-30T05:09:35;7.20;;;6.30;;
80936;SDS011;70395;51.382;7.074;2024-01-30T05:12:00;10.57;;;6.10;;
80936;SDS011;70395;51.382;7.074;2024-01-30T05:14:26;7.23;;;6.03;;
80936;SDS011;70395;51.382;7.074;2024-01-30T05:16:52;8.93;;;6.50;;
80936;SDS011;70395;51.382;7.074;2024-01-30T05:19:18;8.40;;;7.20;;
80936;SDS011;70395;51.382;7.074;2024-01-30T05:21:45;8.63;;;6.90;;
80936;SDS011;70395;51.382;7.074;2024-01-30T05:24:11;7.47;;;5.80;;
80936;SDS011;70395;51.382;7.074;2024-01-30T05:26:36;10.10;;;6.80;;
80936;SDS011;70395;51.382;7.074;2024-01-30T05:29:02;7.20;;;6.50;;
80936;SDS011;70395;51.382;7.074;2024-01-30T05:31:28;8.27;;;6.50;;
80936;SDS011;70395;51.382;7.074;2024-01-30T05:33:54;7.13;;;6.40;;
80936;SDS011;70395;51.382;7.074;2024-01-30T05:36:20;8.63;;;6.77;;
80936;SDS011;70395;51.382;7.074;2024-01-30T05:38:46;7.50;;;5.70;;
80936;SDS011;70395;51.382;7.074;2024-01-30T05:41:12;10.23;;;6.57;;
80936;SDS011;70395;51.382;7.074;2024-01-30T05:43:38;7.50;;;6.43;;
80936;SDS011;70395;51.382;7.074;2024-01-30T05:46:04;7.53;;;6.67;;
80936;SDS011;70395;51.382;7.074;2024-01-30T05:48:31;11.77;;;7.23;;
80936;SDS011;70395;51.382;7.074;2024-01-30T05:50:58;8.60;;;6.93;;
80936;SDS011;70395;51.382;7.074;2024-01-30T05:53:25;6.57;;;5.70;;
80936;SDS011;70395;51.382;7.074;2024-01-30T05:55:50;10.40;;;6.13;;
80936;SDS011;70395;51.382;7.074;2024-01-30T05:58:16;8.63;;;6.13;;
80936;SDS011;70395;51.382;7.074;2024-01-30T06:00:42;9.03;;;6.90;;
80936;SDS011;70395;51.382;7.074;2024-01-30T06:03:08;9.97;;;7.13;;
80936;SDS011;70395;51.382;7.074;2024-01-30T06:05:33;8.67;;;6.37;;
80936;SDS011;70395;51.382;7.074;2024-01-30T06:07:59;7.80;;;6.67;;
80936;SDS011;70395;51.382;7.074;2024-01-30T06:10:25;7.57;;;6.87;;
80936;SDS011;70395;51.382;7.074;2024-01-30T06:12:51;8.17;;;6.00;;
80936;SDS011;70395;51.382;7.074;2024-01-30T06:15:17;8.30;;;6.27;;
80936;SDS011;70395;51.382;7.074;2024-01-30T06:17:43;7.47;;;5.67;;
80936;SDS011;70395;51.382;7.074;2024-01-30T06:20:09;7.43;;;6.60;;
80936;SDS011;70395;51.382;7.074;2024-01-30T06:22:35;8.73;;;6.30;;
80936;SDS011;70395;51.382;7.074;2024-01-30T06:25:01;8.13;;;7.00;;
80936;SDS011;70395;51.382;7.074;2024-01-30T06:27:27;7.90;;;5.63;;
80936;SDS011;70395;51.382;7.074;2024-01-30T06:29:53;7.47;;;5.90;;
80936;SDS011;70395;51.382;7.074;2024-01-30T06:32:19;8.77;;;6.50;;
80936;SDS011;70395;51.382;7.074;2024-01-30T06:34:44;7.73;;;6.20;;
80936;SDS011;70395;51.382;7.074;2024-01-30T06:37:10;8.73;;;6.30;;
80936;SDS011;70395;51.382;7.074;2024-01-30T06:39:36;10.33;;;6.20;;
80936;SDS011;70395;51.382;7.074;2024-01-30T06:42:02;9.43;;;6.90;;
80936;SDS011;70395;51.382;7.074;2024-01-30T06:44:28;9.43;;;6.57;;
80936;SDS011;70395;51.382;7.074;2024-01-30T06:46:53;8.10;;;6.63;;
80936;SDS011;70395;51.382;7.074;2024-01-30T06:49:19;10.37;;;6.37;;
80936;SDS011;70395;51.382;7.074;2024-01-30T06:51:46;10.90;;;6.63;;
80936;SDS011;70395;51.382;7.074;2024-01-30T06:54:13;9.13;;;6.17;;
80936;SDS011;70395;51.382;7.074;2024-01-30T06:56:39;8.07;;;6.40;;
80936;SDS011;70395;51.382;7.074;2024-01-30T06:59:04;8.00;;;6.67;;
80936;SDS011;70395;51.382;7.074;2024-01-30T07:01:30;10.83;;;7.00;;
80936;SDS011;70395;51.382;7.074;2024-01-30T07:03:57;7.30;;;6.27;;
80936;SDS011;70395;51.382;7.074;2024-01-30T07:06:23;9.33;;;6.50;;
80936;SDS011;70395;51.382;7.074;2024-01-30T07:08:49;8.50;;;6.70;;
80936;SDS011;70395;51.382;7.074;2024-01-30T07:11:19;10.20;;;6.17;;
80936;SDS011;70395;51.382;7.074;2024-01-30T07:13:47;7.80;;;7.00;;
80936;SDS011;70395;51.382;7.074;2024-01-30T07:16:14;7.47;;;6.40;;
80936;SDS011;70395;51.382;7.074;2024-01-30T07:18:40;11.63;;;7.80;;
80936;SDS011;70395;51.382;7.074;2024-01-30T07:21:06;7.13;;;5.97;;
80936;SDS011;70395;51.382;7.074;2024-01-30T07:23:32;8.70;;;7.27;;
80936;SDS011;70395;51.382;7.074;2024-01-30T07:25:59;9.60;;;6.83;;
80936;SDS011;70395;51.382;7.074;2024-01-30T07:28:26;8.03;;;6.57;;
80936;SDS011;70395;51.382;7.074;2024-01-30T07:30:52;7.20;;;6.00;;
80936;SDS011;70395;51.382;7.074;2024-01-30T07:33:18;10.00;;;6.70;;
80936;SDS011;70395;51.382;7.074;2024-01-30T07:35:45;8.20;;;7.00;;
80936;SDS011;70395;51.382;7.074;2024-01-30T07:38:11;10.30;;;6.77;;
80936;SDS011;70395;51.382;7.074;2024-01-30T07:40:37;6.30;;;5.70;;
80936;SDS011;70395;51.382;7.074;2024-01-30T07:43:03;7.57;;;5.80;;
80936;SDS011;70395;51.382;7.074;2024-01-30T07:45:29;8.77;;;7.00;;
80936;SDS011;70395;51.382;7.074;2024-01-30T07:47:58;6.97;;;5.87;;
80936;SDS011;70395;51.382;7.074;2024-01-30T07:50:27;7.97;;;6.93;;
80936;SDS011;70395;51.382;7.074;2024-01-30T07:52:53;7.63;;;6.60;;
80936;SDS011;70395;51.382;7.074;2024-01-30T07:55:21;7.40;;;6.33;;
80936;SDS011;70395;51.382;7.074;2024-01-30T07:57:53;7.30;;;6.17;;
80936;SDS011;70395;51.382;7.074;2024-01-30T08:00:20;9.30;;;6.73;;
80936;SDS011;70395;51.382;7.074;2024-01-30T08:02:47;6.30;;;5.70;;
80936;SDS011;70395;51.382;7.074;2024-01-30T08:05:13;9.97;;;6.20;;
80936;SDS011;70395;51.382;7.074;2024-01-30T08:07:40;7.83;;;6.20;;
80936;SDS011;70395;51.382;7.074;2024-01-30T08:10:07;7.17;;;6.47;;
80936;SDS011;70395;51.382;7.074;2024-01-30T08:12:34;8.27;;;6.40;;
80936;SDS011;70395;51.382;7.074;2024-01-30T08:14:59;9.90;;;6.77;;
80936;SDS011;70395;51.382;7.074;2024-01-30T08:17:25;7.67;;;6.60;;
80936;SDS011;70395;51.382;7.074;2024-01-30T08:19:51;10.33;;;6.93;;
80936;SDS011;70395;51.382;7.074;2024-01-30T08:22:17;7.70;;;6.40;;
80936;SDS011;70395;51.382;7.074;2024-01-30T08:24:42;9.60;;;6.30;;
80936;SDS011;70395;51.382;7.074;2024-01-30T08:27:08;9.03;;;6.70;;
80936;SDS011;70395;51.382;7.074;2024-01-30T08:29:36;8.07;;;6.57;;
80936;SDS011;70395;51.382;7.074;2024-01-30T08:32:01;11.50;;;7.17;;
80936;SDS011;70395;51.382;7.074;2024-01-30T08:34:29;7.97;;;6.07;;
80936;SDS011;70395;51.382;7.074;2024-01-30T08:36:54;7.17;;;6.03;;
80936;SDS011;70395;51.382;7.074;2024-01-30T08:39:20;8.43;;;6.00;;
80936;SDS011;70395;51.382;7.074;2024-01-30T08:41:46;7.00;;;5.40;;
80936;SDS011;70395;51.382;7.074;2024-01-30T08:44:12;8.47;;;6.33;;
80936;SDS011;70395;51.382;7.074;2024-01-30T08:46:37;10.17;;;6.40;;
80936;SDS011;70395;51.382;7.074;2024-01-30T08:49:03;9.30;;;6.60;;
80936;SDS011;70395;51.382;7.074;2024-01-30T08:51:30;9.93;;;6.23;;
80936;SDS011;70395;51.382;7.074;2024-01-30T08:53:56;8.20;;;6.47;;
80936;SDS011;70395;51.382;7.074;2024-01-30T08:56:21;8.40;;;6.97;;
80936;SDS011;70395;51.382;7.074;2024-01-30T08:58:47;9.10;;;6.87;;
80936;SDS011;70395;51.382;7.074;2024-01-30T09:01:13;6.93;;;6.23;;
80936;SDS011;70395;51.382;7.074;2024-01-30T09:03:39;7.83;;;5.87;;
80936;SDS011;70395;51.382;7.074;2024-01-30T09:06:09;10.60;;;6.57;;
80936;SDS011;70395;51.382;7.074;2024-01-30T09:08:35;8.00;;;6.40;;
80936;SDS011;70395;51.382;7.074;2024-01-30T09:11:02;8.60;;;5.90;;
80936;SDS011;70395;51.382;7.074;2024-01-30T09:13:38;7.33;;;5.57;;
80936;SDS011;70395;51.382;7.074;2024-01-30T09:16:04;10.17;;;7.00;;
80936;SDS011;70395;51.382;7.074;2024-01-30T09:18:30;8.27;;;6.20;;
80936;SDS011;70395;51.382;7.074;2024-01-30T09:20:56;8.60;;;5.83;;
80936;SDS011;70395;51.382;7.074;2024-01-30T09:23:22;6.90;;;6.00;;
80936;SDS011;70395;51.382;7.074;2024-01-30T09:25:48;9.90;;;6.23;;
80936;SDS011;70395;51.382;7.074;2024-01-30T09:28:14;7.47;;;5.50;;
80936;SDS011;70395;51.382;7.074;2024-01-30T09:30:40;10.13;;;6.37;;
80936;SDS011;70395;51.382;7.074;2024-01-30T09:33:06;8.37;;;5.87;;
80936;SDS011;70395;51.382;7.074;2024-01-30T09:35:32;10.70;;;6.87;;
80936;SDS011;70395;51.382;7.074;2024-01-30T09:37:58;7.90;;;6.10;;
80936;SDS011;70395;51.382;7.074;2024-01-30T09:40:25;8.13;;;6.30;;
80936;SDS011;70395;51.382;7.074;2024-01-30T09:42:51;6.70;;;5.87;;
80936;SDS011;70395;51.382;7.074;2024-01-30T09:45:18;8.70;;;6.50;;
80936;SDS011;70395;51.382;7.074;2024-01-30T09:47:45;7.63;;;5.87;;
80936;SDS011;70395;51.382;7.074;2024-01-30T09:50:12;8.03;;;7.20;;
80936;SDS011;70395;51.382;7.074;2024-01-30T09:52:39;8.13;;;6.30;;
80936;SDS011;70395;51.382;7.074;2024-01-30T09:55:06;8.43;;;6.63;;
80936;SDS011;70395;51.382;7.074;2024-01-30T09:57:33;12.03;;;6.57;;
80936;SDS011;70395;51.382;7.074;2024-01-30T10:00:00;8.67;;;6.43;;
80936;SDS011;70395;51.382;7.074;2024-01-30T10:02:31;8.27;;;6.40;;
80936;SDS011;70395;51.382;7.074;2024-01-30T10:04:57;7.93;;;6.33;;
80936;SDS011;70395;51.382;7.074;2024-01-30T10:07:23;10.37;;;6.90;;
80936;SDS011;70395;51.382;7.074;2024-01-30T10:09:49;9.63;;;6.40;;
80936;SDS011;70395;51.382;7.074;2024-01-30T10:12:15;7.43;;;6.40;;
80936;SDS011;70395;51.382;7.074;2024-01-30T10:14:41;7.47;;;6.30;;
80936;SDS011;70395;51.382;7.074;2024-01-30T10:17:08;7.73;;;5.90;;
80936;SDS011;70395;51.382;7.074;2024-01-30T10:19:36;11.47;;;6.40;;
80936;SDS011;70395;51.382;7.074;2024-01-30T10:22:03;8.50;;;6.20;;
80936;SDS011;70395;51.382;7.074;2024-01-30T10:24:30;9.90;;;6.43;;
80936;SDS011;70395;51.382;7.074;2024-01-30T10:26:58;11.40;;;7.03;;
80936;SDS011;70395;51.382;7.074;2024-01-30T10:29:24;7.93;;;6.47;;
80936;SDS011;70395;51.382;7.074;2024-01-30T10:32:00;8.30;;;6.43;;
80936;SDS011;70395;51.382;7.074;2024-01-30T10:34:27;12.57;;;6.60;;
80936;SDS011;70395;51.382;7.074;2024-01-30T10:37:05;9.10;;;6.50;;
80936;SDS011;70395;51.382;7.074;2024-01-30T10:39:38;8.57;;;6.63;;
80936;SDS011;70395;51.382;7.074;2024-01-30T10:42:06;7.03;;;6.30;;
80936;SDS011;70395;51.382;7.074;2024-01-30T10:44:44;8.50;;;7.03;;
80936;SDS011;70395;51.382;7.074;2024-01-30T10:47:44;7.60;;;6.47;;
80936;SDS011;70395;51.382;7.074;2024-01-30T10:50:15;8.17;;;5.87;;
80936;SDS011;70395;51.382;7.074;2024-01-30T10:52:42;8.10;;;5.90;;
80936;SDS011;70395;51.382;7.074;2024-01-30T10:55:08;8.67;;;5.77;;
80936;SDS011;70395;51.382;7.074;2024-01-30T10:57:36;8.37;;;6.07;;
80936;SDS011;70395;51.382;7.074;2024-01-30T11:00:09;13.80;;;7.67;;
80936;SDS011;70395;51.382;7.074;2024-01-30T11:02:41;7.80;;;6.33;;
80936;SDS011;70395;51.382;7.074;2024-01-30T11:05:10;9.73;;;6.00;;
80936;SDS011;70395;51.382;7.074;2024-01-30T11:07:38;10.63;;;6.80;;
80936;SDS011;70395;51.382;7.074;2024-01-30T11:10:08;7.07;;;6.30;;
80936;SDS011;70395;51.382;7.074;2024-01-30T11:12:37;7.70;;;6.40;;
80936;SDS011;70395;51.382;7.074;2024-01-30T11:15:06;10.40;;;7.70;;
80936;SDS011;70395;51.382;7.074;2024-01-30T11:17:40;7.70;;;6.90;;
80936;SDS011;70395;51.382;7.074;2024-01-30T11:22:56;8.10;;;6.73;;
80936;SDS011;70395;51.382;7.074;2024-01-30T11:25:24;10.07;;;6.67;;
80936;SDS011;70395;51.382;7.074;2024-01-30T11:27:51;9.23;;;6.57;;
80936;SDS011;70395;51.382;7.074;2024-01-30T11:30:26;10.13;;;6.87;;
80936;SDS011;70395;51.382;7.074;2024-01-30T11:35:40;9.83;;;6.53;;
80936;SDS011;70395;51.382;7.074;2024-01-30T11:38:08;17.43;;;7.37;;
80936;SDS011;70395;51.382;7.074;2024-01-30T11:40:36;9.43;;;7.03;;
80936;SDS011;70395;51.382;7.074;2024-01-30T11:43:04;13.23;;;6.50;;
80936;SDS011;70395;51.382;7.074;2024-01-30T11:45:32;8.43;;;7.17;;
80936;SDS011;70395;51.382;7.074;2024-01-30T11:47:58;8.43;;;6.40;;
80936;SDS011;70395;51.382;7.074;2024-01-30T11:50:33;8.77;;;6.67;;
80936;SDS011;70395;51.382;7.074;2024-01-30T11:53:03;9.33;;;7.00;;
80936;SDS011;70395;51.382;7.074;2024-01-30T11:55:30;13.80;;;7.17;;
80936;SDS011;70395;51.382;7.074;2024-01-30T11:57:59;12.07;;;7.87;;
80936;SDS011;70395;51.382;7.074;2024-01-30T12:00:25;10.80;;;7.00;;
80936;SDS011;70395;51.382;7.074;2024-01-30T12:02:51;12.33;;;6.37;;
80936;SDS011;70395;51.382;7.074;2024-01-30T12:05:22;12.40;;;7.33;;
80936;SDS011;70395;51.382;7.074;2024-01-30T12:07:49;9.13;;;7.70;;
80936;SDS011;70395;51.382;7.074;2024-01-30T12:10:15;12.80;;;7.03;;
80936;SDS011;70395;51.382;7.074;2024-01-30T12:12:43;8.63;;;6.27;;
80936;SDS011;70395;51.382;7.074;2024-01-30T12:15:12;10.77;;;7.10;;
80936;SDS011;70395;51.382;7.074;2024-01-30T12:17:39;11.37;;;7.80;;
80936;SDS011;70395;51.382;7.074;2024-01-30T12:20:09;11.30;;;7.40;;
80936;SDS011;70395;51.382;7.074;2024-01-30T12:22:42;11.30;;;8.60;;
80936;SDS011;70395;51.382;7.074;2024-01-30T12:25:13;10.87;;;7.93;;
80936;SDS011;70395;51.382;7.074;2024-01-30T12:27:42;9.60;;;7.53;;
80936;SDS011;70395;51.382;7.074;2024-01-30T12:30:15;11.13;;;7.90;;
80936;SDS011;70395;51.382;7.074;2024-01-30T12:32:43;13.63;;;8.03;;
80936;SDS011;70395;51.382;7.074;2024-01-30T12:35:14;13.80;;;8.40;;
80936;SDS011;70395;51.382;7.074;2024-01-30T12:37:43;17.10;;;8.20;;
80936;SDS011;70395;51.382;7.074;2024-01-30T12:40:10;7.57;;;6.77;;
80936;SDS011;70395;51.382;7.074;2024-01-30T12:42:39;12.23;;;7.23;;
80936;SDS011;70395;51.382;7.074;2024-01-30T12:45:13;10.53;;;7.00;;
80936;SDS011;70395;51.382;7.074;2024-01-30T12:47:40;13.63;;;7.53;;
80936;SDS011;70395;51.382;7.074;2024-01-30T12:50:07;11.07;;;7.90;;
80936;SDS011;70395;51.382;7.074;2024-01-30T12:52:33;19.73;;;7.80;;
80936;SDS011;70395;51.382;7.074;2024-01-30T12:55:00;10.83;;;7.50;;
80936;SDS011;70395;51.382;7.074;2024-01-30T12:57:29;9.80;;;7.67;;
80936;SDS011;70395;51.382;7.074;2024-01-30T12:59:54;12.77;;;7.83;;
80936;SDS011;70395;51.382;7.074;2024-01-30T13:02:20;12.00;;;7.90;;
80936;SDS011;70395;51.382;7.074;2024-01-30T13:04:47;10.60;;;7.00;;
80936;SDS011;70395;51.382;7.074;2024-01-30T13:07:13;15.87;;;8.40;;
80936;SDS011;70395;51.382;7.074;2024-01-30T13:09:39;9.33;;;7.37;;
80936;SDS011;70395;51.382;7.074;2024-01-30T13:12:05;12.83;;;8.10;;
80936;SDS011;70395;51.382;7.074;2024-01-30T13:14:31;10.00;;;7.60;;
80936;SDS011;70395;51.382;7.074;2024-01-30T13:16:58;10.73;;;7.20;;
80936;SDS011;70395;51.382;7.074;2024-01-30T13:19:24;10.60;;;8.17;;
80936;SDS011;70395;51.382;7.074;2024-01-30T13:21:49;10.10;;;7.70;;
80936;SDS011;70395;51.382;7.074;2024-01-30T13:24:15;9.23;;;7.50;;
80936;SDS011;70395;51.382;7.074;2024-01-30T13:26:42;10.83;;;7.67;;
80936;SDS011;70395;51.382;7.074;2024-01-30T13:29:09;14.70;;;8.17;;
80936;SDS011;70395;51.382;7.074;2024-01-30T13:31:35;12.57;;;7.60;;
80936;SDS011;70395;51.382;7.074;2024-01-30T13:34:00;12.80;;;7.77;;
80936;SDS011;70395;51.382;7.074;2024-01-30T13:36:26;10.90;;;7.80;;
80936;SDS011;70395;51.382;7.074;2024-01-30T13:38:52;12.77;;;8.47;;
80936;SDS011;70395;51.382;7.074;2024-01-30T13:41:18;11.13;;;9.03;;
80936;SDS011;70395;51.382;7.074;2024-01-30T13:43:45;10.17;;;8.07;;
80936;SDS011;70395;51.382;7.074;2024-01-30T13:46:11;10.00;;;7.57;;
80936;SDS011;70395;51.382;7.074;2024-01-30T13:48:37;12.20;;;7.43;;
80936;SDS011;70395;51.382;7.074;2024-01-30T13:51:03;9.63;;;7.20;;
80936;SDS011;70395;51.382;7.074;2024-01-30T13:53:29;13.33;;;8.17;;
80936;SDS011;70395;51.382;7.074;2024-01-30T13:55:55;10.60;;;8.10;;
80936;SDS011;70395;51.382;7.074;2024-01-30T13:58:20;11.17;;;8.17;;
80936;SDS011;70395;51.382;7.074;2024-01-30T14:00:46;9.90;;;7.93;;
80936;SDS011;70395;51.382;7.074;2024-01-30T14:03:12;10.73;;;7.93;;
80936;SDS011;70395;51.382;7.074;2024-01-30T14:05:38;12.93;;;8.30;;
80936;SDS011;70395;51.382;7.074;2024-01-30T14:08:03;12.53;;;9.00;;
80936;SDS011;70395;51.382;7.074;2024-01-30T14:10:30;11.80;;;8.10;;
80936;SDS011;70395;51.382;7.074;2024-01-30T14:12:56;11.37;;;8.57;;
80936;SDS011;70395;51.382;7.074;2024-01-30T14:15:22;10.23;;;8.47;;
80936;SDS011;70395;51.382;7.074;2024-01-30T14:17:48;12.43;;;7.77;;
80936;SDS011;70395;51.382;7.074;2024-01-30T14:20:15;10.40;;;7.97;;
80936;SDS011;70395;51.382;7.074;2024-01-30T14:22:44;12.00;;;8.23;;
80936;SDS011;70395;51.382;7.074;2024-01-30T14:25:10;8.33;;;7.50;;
80936;SDS011;70395;51.382;7.074;2024-01-30T14:27:37;11.20;;;8.00;;
80936;SDS011;70395;51.382;7.074;2024-01-30T14:30:03;11.67;;;9.10;;
80936;SDS011;70395;51.382;7.074;2024-01-30T14:32:29;11.30;;;8.40;;
80936;SDS011;70395;51.382;7.074;2024-01-30T14:34:55;13.00;;;8.23;;
80936;SDS011;70395;51.382;7.074;2024-01-30T14:37:21;10.37;;;8.30;;
80936;SDS011;70395;51.382;7.074;2024-01-30T14:39:48;12.30;;;7.97;;
80936;SDS011;70395;51.382;7.074;2024-01-30T14:42:15;8.57;;;7.50;;
80936;SDS011;70395;51.382;7.074;2024-01-30T14:44:41;13.23;;;8.30;;
80936;SDS011;70395;51.382;7.074;2024-01-30T14:47:07;13.80;;;8.93;;